createdAt,value
2018-10-17T00:00:24.275Z,65.4
2018-10-17T00:01:16.264Z,65.3
2018-10-17T00:02:04.372Z,65.3
2018-10-17T00:02:54.516Z,65.3
2018-10-17T00:03:44.779Z,65.3
2018-10-17T00:04:35.153Z,65.3
2018-10-17T00:05:25.208Z,65.3
2018-10-17T00:06:14.681Z,65.3
2018-10-17T00:07:04.865Z,65.3
2018-10-17T00:25:21.331Z,65.1
2018-10-17T00:26:11.291Z,65.1
2018-10-17T00:27:00.725Z,65.1
2018-10-17T00:27:51.641Z,65.1
2018-10-17T00:28:41.435Z,65.1
2018-10-17T00:29:31.218Z,65.1
2018-10-17T00:30:21.575Z,65.1
2018-10-17T00:31:13.314Z,65.1
2018-10-17T00:32:00.848Z,65.1
2018-10-17T00:32:51.449Z,65.1
2018-10-17T00:33:42.068Z,65
2018-10-17T00:34:31.108Z,65
2018-10-17T00:35:21.859Z,65
2018-10-17T00:36:11.719Z,65
2018-10-17T00:37:02.724Z,65
2018-10-17T00:37:51.265Z,64.9
2018-10-17T00:38:42.172Z,64.9
2018-10-17T00:39:31.919Z,64.9
2018-10-17T00:40:22.777Z,64.9
2018-10-17T00:41:13.323Z,64.9
2018-10-17T00:42:02.449Z,64.9
2018-10-17T00:42:52.803Z,64.9
2018-10-17T00:43:42.527Z,64.9
2018-10-17T00:44:33.122Z,64.9
2018-10-17T00:45:22.947Z,64.9
2018-10-17T00:46:12.437Z,64.9
2018-10-17T00:47:03.147Z,64.9
2018-10-17T00:47:52.266Z,64.9
2018-10-17T00:48:42.912Z,64.9
2018-10-17T00:49:32.693Z,64.9
2018-10-17T00:50:22.728Z,64.9
2018-10-17T00:51:12.875Z,64.9
2018-10-17T00:52:02.122Z,64.8
2018-10-17T00:52:52.241Z,64.8
2018-10-17T00:53:42.817Z,64.8
2018-10-17T00:54:32.290Z,64.8
2018-10-17T00:55:23.396Z,64.8
2018-10-17T00:56:13.756Z,64.8
2018-10-17T00:57:02.972Z,64.8
2018-10-17T00:57:54.099Z,64.8
2018-10-17T00:58:43.618Z,64.8
2018-10-17T00:59:33.434Z,64.8
2018-10-17T01:00:24.028Z,64.8
2018-10-17T01:01:15.510Z,64.8
2018-10-17T01:02:03.623Z,64.8
2018-10-17T01:02:53.658Z,64.8
2018-10-17T01:03:44.004Z,64.8
2018-10-17T01:04:34.357Z,64.7
2018-10-17T01:05:24.696Z,64.7
2018-10-17T01:06:14.501Z,64.7
2018-10-17T01:07:05.372Z,64.7
2018-10-17T01:07:54.014Z,64.7
2018-10-17T01:08:44.909Z,64.7
2018-10-17T01:09:34.446Z,64.7
2018-10-17T01:10:24.814Z,64.7
2018-10-17T01:11:15.783Z,64.6
2018-10-17T01:12:04.444Z,64.6
2018-10-17T01:12:55.455Z,64.6
2018-10-17T01:13:43.907Z,64.6
2018-10-17T01:14:34.543Z,64.6
2018-10-17T01:15:24.326Z,64.6
2018-10-17T01:16:15.312Z,64.6
2018-10-17T01:17:05.920Z,64.6
2018-10-17T01:17:55.148Z,64.6
2018-10-17T01:18:45.085Z,64.6
2018-10-17T01:19:34.905Z,64.6
2018-10-17T01:20:25.267Z,64.6
2018-10-17T01:21:15.884Z,64.6
2018-10-17T01:22:05.680Z,64.6
2018-10-17T01:22:55.948Z,64.6
2018-10-17T01:23:45.511Z,64.5
2018-10-17T01:24:35.833Z,64.5
2018-10-17T01:25:25.377Z,64.5
2018-10-17T01:26:15.464Z,64.5
2018-10-17T01:27:05.728Z,64.5
2018-10-17T01:27:56.064Z,64.5
2018-10-17T01:28:44.720Z,64.5
2018-10-17T01:29:36.215Z,64.5
2018-10-17T01:30:26.235Z,64.5
2018-10-17T01:31:17.161Z,64.4
2018-10-17T01:32:05.842Z,64.4
2018-10-17T01:32:55.892Z,64.4
2018-10-17T01:33:45.947Z,64.4
2018-10-17T01:34:36.337Z,64.4
2018-10-17T01:35:25.768Z,64.4
2018-10-17T01:36:16.122Z,64.4
2018-10-17T01:37:06.824Z,64.4
2018-10-17T01:37:56.517Z,64.4
2018-10-17T01:38:46.599Z,64.4
2018-10-17T01:39:36.409Z,64.4
2018-10-17T01:40:26.529Z,64.4
2018-10-17T01:41:17.884Z,64.4
2018-10-17T01:42:06.662Z,64.4
2018-10-17T01:42:57.373Z,64.3
2018-10-17T01:43:46.989Z,64.3
2018-10-17T01:44:37.024Z,64.3
2018-10-17T01:45:26.465Z,64.3
2018-10-17T01:46:16.872Z,64.3
2018-10-17T01:47:08.268Z,64.3
2018-10-17T01:47:57.231Z,64.3
2018-10-17T01:48:46.782Z,64.3
2018-10-17T01:49:37.063Z,64.3
2018-10-17T01:50:27.711Z,64.3
2018-10-17T01:51:17.494Z,64.3
2018-10-17T01:52:07.813Z,64.3
2018-10-17T01:52:58.590Z,64.3
2018-10-17T01:53:47.431Z,64.3
2018-10-17T01:54:37.735Z,64.3
2018-10-17T01:55:27.818Z,64.3
2018-10-17T01:56:17.841Z,64.2
2018-10-17T01:57:07.960Z,64.2
2018-10-17T01:57:58.298Z,64.2
2018-10-17T01:58:48.338Z,64.2
2018-10-17T01:59:38.123Z,64.2
2018-10-17T02:00:28.482Z,64.2
2018-10-17T02:01:18.660Z,64.2
2018-10-17T02:02:08.812Z,64.1
2018-10-17T02:02:58.648Z,64.2
2018-10-17T02:03:48.463Z,64.1
2018-10-17T02:04:38.501Z,64.1
2018-10-17T02:05:28.549Z,64.1
2018-10-17T02:06:18.605Z,64.1
2018-10-17T02:07:08.958Z,64.1
2018-10-17T02:07:58.129Z,64.1
2018-10-17T02:08:48.795Z,64.1
2018-10-17T02:09:39.132Z,64.1
2018-10-17T02:10:28.356Z,64.1
2018-10-17T02:11:19.052Z,64.1
2018-10-17T02:12:08.777Z,64.1
2018-10-17T02:12:59.253Z,64.1
2018-10-17T02:13:49.436Z,64.1
2018-10-17T02:14:38.393Z,64.1
2018-10-17T02:15:29.263Z,64
2018-10-17T02:16:19.625Z,64
2018-10-17T02:17:10.688Z,64
2018-10-17T02:17:59.464Z,64
2018-10-17T02:18:49.497Z,64
2018-10-17T02:19:39.909Z,64
2018-10-17T02:20:29.928Z,64
2018-10-17T02:21:19.710Z,64
2018-10-17T02:22:09.764Z,64
2018-10-17T02:23:00.002Z,63.9
2018-10-17T02:23:49.672Z,63.9
2018-10-17T02:24:40.321Z,63.9
2018-10-17T02:25:30.010Z,63.9
2018-10-17T02:26:20.133Z,63.9
2018-10-17T02:27:10.155Z,63.9
2018-10-17T02:28:00.197Z,63.9
2018-10-17T02:28:49.937Z,63.9
2018-10-17T02:29:40.571Z,63.9
2018-10-17T02:30:30.442Z,63.9
2018-10-17T02:31:22.297Z,63.9
2018-10-17T02:32:10.657Z,63.9
2018-10-17T02:33:00.289Z,63.9
2018-10-17T02:33:51.231Z,63.9
2018-10-17T02:34:40.965Z,63.9
2018-10-17T02:35:30.438Z,63.9
2018-10-17T02:36:20.871Z,63.8
2018-10-17T02:37:12.764Z,63.8
2018-10-17T02:38:01.188Z,63.8
2018-10-17T02:38:50.437Z,63.8
2018-10-17T02:39:40.932Z,63.8
2018-10-17T02:40:31.142Z,63.8
2018-10-17T02:41:22.443Z,63.8
2018-10-17T02:42:11.529Z,63.8
2018-10-17T02:43:01.240Z,63.8
2018-10-17T02:43:51.588Z,63.8
2018-10-17T02:44:41.714Z,63.8
2018-10-17T02:45:31.784Z,63.8
2018-10-17T02:46:21.307Z,63.8
2018-10-17T02:47:13.686Z,63.8
2018-10-17T02:48:01.402Z,63.8
2018-10-17T02:48:52.083Z,63.7
2018-10-17T02:49:41.827Z,63.7
2018-10-17T02:50:32.150Z,63.7
2018-10-17T02:51:21.663Z,63.7
2018-10-17T02:52:12.246Z,63.7
2018-10-17T02:53:03.116Z,63.7
2018-10-17T02:53:52.110Z,63.7
2018-10-17T02:54:41.597Z,63.6
2018-10-17T02:55:32.505Z,63.6
2018-10-17T02:56:22.311Z,63.6
2018-10-17T02:57:12.607Z,63.6
2018-10-17T02:58:01.871Z,63.6
2018-10-17T02:58:53.150Z,63.6
2018-10-17T02:59:42.030Z,63.6
2018-10-17T03:00:32.690Z,63.6
2018-10-17T03:01:22.654Z,63.6
2018-10-17T03:02:12.712Z,63.6
2018-10-17T03:03:02.799Z,63.6
2018-10-17T03:03:53.387Z,63.6
2018-10-17T03:04:42.642Z,63.6
2018-10-17T03:05:33.324Z,63.6
2018-10-17T03:06:23.302Z,63.6
2018-10-17T03:07:13.859Z,63.5
2018-10-17T03:08:03.149Z,63.6
2018-10-17T03:08:53.198Z,63.5
2018-10-17T03:09:42.989Z,63.5
2018-10-17T03:10:33.074Z,63.5
2018-10-17T03:11:23.588Z,63.5
2018-10-17T03:12:13.796Z,63.4
2018-10-17T03:13:04.650Z,63.5
2018-10-17T03:13:53.288Z,63.4
2018-10-17T03:14:43.382Z,63.4
2018-10-17T03:15:33.784Z,63.4
2018-10-17T03:16:23.634Z,63.4
2018-10-17T03:17:15.596Z,63.4
2018-10-17T03:18:04.200Z,63.4
2018-10-17T03:18:54.328Z,63.4
2018-10-17T03:19:43.952Z,63.4
2018-10-17T03:20:34.097Z,63.4
2018-10-17T03:21:24.191Z,63.4
2018-10-17T03:22:14.008Z,63.4
2018-10-17T03:23:05.624Z,63.4
2018-10-17T03:23:54.046Z,63.4
2018-10-17T03:24:44.437Z,63.4
2018-10-17T03:25:35.208Z,63.4
2018-10-17T03:26:24.597Z,63.3
2018-10-17T03:27:14.586Z,63.3
2018-10-17T03:28:04.971Z,63.3
2018-10-17T03:28:54.652Z,63.3
2018-10-17T03:29:44.435Z,63.3
2018-10-17T03:30:34.860Z,63.3
2018-10-17T03:31:26.326Z,63.3
2018-10-17T03:32:15.031Z,63.3
2018-10-17T03:33:04.743Z,63.3
2018-10-17T03:33:55.048Z,63.3
2018-10-17T03:34:45.213Z,63.3
2018-10-17T03:35:35.267Z,63.3
2018-10-17T03:36:25.625Z,63.3
2018-10-17T03:37:16.041Z,63.3
2018-10-17T03:38:05.458Z,63.3
2018-10-17T03:38:55.792Z,63.3
2018-10-17T03:39:45.645Z,63.3
2018-10-17T03:40:36.170Z,63.3
2018-10-17T03:41:25.766Z,63.2
2018-10-17T03:42:15.818Z,63.2
2018-10-17T03:43:05.437Z,63.2
2018-10-17T03:43:56.152Z,63.2
2018-10-17T03:44:46.250Z,63.2
2018-10-17T03:45:36.048Z,63.2
2018-10-17T03:46:26.049Z,63.2
2018-10-17T03:47:17.915Z,63.2
2018-10-17T03:48:05.602Z,63.1
2018-10-17T03:48:56.351Z,63.1
2018-10-17T03:49:46.606Z,63.1
2018-10-17T03:50:36.399Z,63.1
2018-10-17T03:51:26.415Z,63.1
2018-10-17T03:52:16.780Z,63.1
2018-10-17T03:53:07.818Z,63.1
2018-10-17T03:53:56.832Z,63.1
2018-10-17T03:54:46.945Z,63.1
2018-10-17T03:55:36.456Z,63.1
2018-10-17T03:56:26.455Z,63.1
2018-10-17T03:57:15.922Z,63.1
2018-10-17T03:58:06.551Z,63.1
2018-10-17T03:58:57.871Z,63.1
2018-10-17T03:59:47.810Z,63.1
2018-10-17T04:00:37.039Z,63.1
2018-10-17T04:01:26.244Z,63
2018-10-17T04:02:17.481Z,63
2018-10-17T04:03:08.113Z,63
2018-10-17T04:03:57.557Z,63
2018-10-17T04:04:47.063Z,63
2018-10-17T04:05:37.933Z,63
2018-10-17T04:06:28.091Z,63
2018-10-17T04:07:18.592Z,62.9
2018-10-17T04:08:07.864Z,63
2018-10-17T04:08:57.928Z,62.9
2018-10-17T04:09:48.013Z,62.9
2018-10-17T04:10:37.747Z,62.9
2018-10-17T04:11:27.277Z,62.9
2018-10-17T04:12:17.593Z,62.9
2018-10-17T04:13:09.234Z,62.9
2018-10-17T04:13:58.263Z,62.9
2018-10-17T04:14:48.051Z,62.9
2018-10-17T04:15:38.485Z,62.9
2018-10-17T04:16:28.448Z,62.9
2018-10-17T04:17:18.986Z,62.9
2018-10-17T04:18:08.337Z,62.9
2018-10-17T04:18:58.872Z,62.9
2018-10-17T04:19:48.741Z,62.9
2018-10-17T04:20:38.749Z,62.8
2018-10-17T04:21:27.982Z,62.8
2018-10-17T04:22:18.617Z,62.8
2018-10-17T04:23:09.794Z,62.8
2018-10-17T04:23:58.799Z,62.8
2018-10-17T04:24:48.623Z,62.8
2018-10-17T04:25:38.942Z,62.8
2018-10-17T04:26:28.292Z,62.8
2018-10-17T04:27:18.986Z,62.8
2018-10-17T04:28:08.750Z,62.8
2018-10-17T04:28:59.509Z,62.8
2018-10-17T04:29:49.142Z,62.8
2018-10-17T04:30:39.472Z,62.8
2018-10-17T04:31:29.296Z,62.8
2018-10-17T04:32:19.074Z,62.8
2018-10-17T04:33:09.140Z,62.8
2018-10-17T04:33:59.451Z,62.8
2018-10-17T04:34:49.835Z,62.8
2018-10-17T04:35:39.606Z,62.7
2018-10-17T04:36:29.666Z,62.7
2018-10-17T04:54:20.462Z,62.6
2018-10-17T04:55:11.387Z,62.6
2018-10-17T04:56:00.041Z,62.6
2018-10-17T04:56:50.448Z,62.5
2018-10-17T04:57:40.186Z,62.5
2018-10-17T04:58:30.254Z,62.5
2018-10-17T04:59:21.553Z,62.5
2018-10-17T05:00:10.795Z,62.5
2018-10-17T05:01:01.370Z,62.5
2018-10-17T05:01:50.765Z,62.4
2018-10-17T05:02:40.837Z,62.4
2018-10-17T05:03:30.604Z,62.4
2018-10-17T05:04:20.503Z,62.4
2018-10-17T05:05:12.215Z,62.4
2018-10-17T05:06:01.057Z,62.4
2018-10-17T05:06:51.484Z,62.4
2018-10-17T05:07:40.906Z,62.4
2018-10-17T05:08:31.230Z,62.4
2018-10-17T05:09:21.285Z,62.4
2018-10-17T05:10:11.389Z,62.4
2018-10-17T05:11:01.200Z,62.4
2018-10-17T05:11:51.194Z,62.4
2018-10-17T05:12:41.536Z,62.4
2018-10-17T05:13:31.363Z,62.4
2018-10-17T05:14:21.388Z,62.4
2018-10-17T05:15:12.160Z,62.4
2018-10-17T05:16:01.512Z,62.4
2018-10-17T05:16:51.356Z,62.3
2018-10-17T05:17:41.626Z,62.3
2018-10-17T05:18:31.684Z,62.3
2018-10-17T05:19:21.796Z,62.3
2018-10-17T05:20:12.091Z,62.3
2018-10-17T05:21:01.874Z,62.3
2018-10-17T05:21:51.944Z,62.3
2018-10-17T05:22:41.733Z,62.3
2018-10-17T05:23:32.059Z,62.3
2018-10-17T05:24:21.827Z,62.3
2018-10-17T05:25:13.687Z,62.3
2018-10-17T05:26:01.944Z,62.3
2018-10-17T05:26:52.311Z,62.3
2018-10-17T05:27:42.641Z,62.3
2018-10-17T05:28:32.734Z,62.3
2018-10-17T05:29:22.514Z,62.2
2018-10-17T05:30:12.265Z,62.2
2018-10-17T05:31:03.680Z,62.2
2018-10-17T05:31:52.401Z,62.2
2018-10-17T05:32:42.723Z,62.2
2018-10-17T05:33:33.081Z,62.2
2018-10-17T05:34:23.148Z,62.2
2018-10-17T05:35:14.264Z,62.2
2018-10-17T05:36:02.975Z,62.2
2018-10-17T05:36:53.490Z,62.2
2018-10-17T05:37:44.831Z,62.1
2018-10-17T05:38:32.891Z,62.1
2018-10-17T05:39:22.913Z,62.1
2018-10-17T05:40:13.541Z,62.1
2018-10-17T05:41:03.421Z,62.1
2018-10-17T05:41:53.640Z,62.1
2018-10-17T05:42:43.179Z,62.1
2018-10-17T05:43:33.224Z,62.1
2018-10-17T05:44:23.782Z,62.1
2018-10-17T05:45:13.654Z,62.1
2018-10-17T05:46:04.244Z,62.1
2018-10-17T05:46:54.263Z,62.1
2018-10-17T05:47:43.813Z,62.1
2018-10-17T05:48:33.598Z,62.1
2018-10-17T05:49:23.956Z,62.1
2018-10-17T05:50:13.823Z,62.1
2018-10-17T05:51:04.143Z,62.1
2018-10-17T05:51:54.118Z,62
2018-10-17T05:52:44.457Z,62
2018-10-17T05:53:34.544Z,62
2018-10-17T05:54:24.013Z,62
2018-10-17T05:55:16.142Z,62
2018-10-17T05:56:04.173Z,62
2018-10-17T05:56:54.763Z,62
2018-10-17T05:57:44.550Z,62
2018-10-17T05:58:34.600Z,62
2018-10-17T05:59:24.994Z,61.9
2018-10-17T06:00:14.565Z,61.9
2018-10-17T06:01:05.562Z,61.9
2018-10-17T06:01:55.927Z,61.9
2018-10-17T06:02:44.809Z,61.9
2018-10-17T06:03:34.933Z,61.9
2018-10-17T06:04:25.402Z,61.9
2018-10-17T06:05:16.991Z,61.9
2018-10-17T06:06:05.165Z,61.9
2018-10-17T06:06:55.793Z,61.9
2018-10-17T06:07:45.270Z,61.9
2018-10-17T06:08:35.635Z,61.9
2018-10-17T06:09:25.400Z,61.9
2018-10-17T06:10:16.793Z,61.9
2018-10-17T06:11:06.864Z,61.9
2018-10-17T06:11:55.605Z,61.9
2018-10-17T06:12:45.941Z,61.8
2018-10-17T06:13:35.995Z,61.8
2018-10-17T06:14:25.804Z,61.8
2018-10-17T06:15:15.275Z,61.8
2018-10-17T06:16:06.192Z,61.8
2018-10-17T06:16:56.456Z,61.8
2018-10-17T06:17:46.948Z,61.8
2018-10-17T06:18:36.000Z,61.8
2018-10-17T06:19:26.784Z,61.8
2018-10-17T06:20:17.100Z,61.8
2018-10-17T06:21:07.039Z,61.8
2018-10-17T06:21:57.154Z,61.8
2018-10-17T06:22:46.830Z,61.8
2018-10-17T06:23:36.859Z,61.8
2018-10-17T06:24:26.794Z,61.8
2018-10-17T06:25:17.729Z,61.8
2018-10-17T06:26:06.614Z,61.8
2018-10-17T06:26:56.751Z,61.8
2018-10-17T06:27:46.734Z,61.7
2018-10-17T06:28:36.851Z,61.7
2018-10-17T06:29:26.664Z,61.7
2018-10-17T06:30:16.969Z,61.7
2018-10-17T06:31:06.884Z,61.7
2018-10-17T06:31:57.478Z,61.7
2018-10-17T06:32:47.562Z,61.7
2018-10-17T06:33:37.271Z,61.6
2018-10-17T06:34:28.044Z,61.6
2018-10-17T06:35:18.957Z,61.6
2018-10-17T06:36:07.634Z,61.6
2018-10-17T06:36:57.670Z,61.6
2018-10-17T06:37:47.775Z,61.6
2018-10-17T06:38:37.824Z,61.6
2018-10-17T06:39:27.923Z,61.6
2018-10-17T06:40:17.972Z,61.6
2018-10-17T06:41:08.561Z,61.6
2018-10-17T06:41:57.497Z,61.6
2018-10-17T06:42:48.149Z,61.6
2018-10-17T06:43:39.661Z,61.6
2018-10-17T06:44:28.285Z,61.6
2018-10-17T06:45:18.050Z,61.6
2018-10-17T06:46:08.399Z,61.6
2018-10-17T06:46:58.982Z,61.6
2018-10-17T06:47:48.472Z,61.6
2018-10-17T06:48:38.024Z,61.5
2018-10-17T06:49:28.358Z,61.5
2018-10-17T06:50:18.684Z,61.5
2018-10-17T06:51:09.384Z,61.5
2018-10-17T06:51:58.801Z,61.5
2018-10-17T06:52:48.861Z,61.5
2018-10-17T06:53:38.659Z,61.5
2018-10-17T06:54:30.073Z,61.5
2018-10-17T06:55:20.090Z,61.4
2018-10-17T06:56:08.536Z,61.4
2018-10-17T06:56:59.158Z,61.4
2018-10-17T06:57:49.311Z,61.4
2018-10-17T06:58:39.286Z,61.4
2018-10-17T06:59:28.786Z,61.4
2018-10-17T07:00:19.363Z,61.4
2018-10-17T07:01:10.676Z,61.4
2018-10-17T07:02:01.888Z,61.4
2018-10-17T07:02:49.001Z,61.4
2018-10-17T07:03:39.671Z,61.4
2018-10-17T07:04:29.700Z,61.4
2018-10-17T07:05:20.084Z,61.4
2018-10-17T07:06:09.837Z,61.4
2018-10-17T07:06:59.864Z,61.4
2018-10-17T07:07:49.454Z,61.4
2018-10-17T07:08:40.299Z,61.4
2018-10-17T07:09:29.321Z,61.3
2018-10-17T07:10:20.104Z,61.3
2018-10-17T07:11:10.352Z,61.4
2018-10-17T07:12:00.282Z,61.3
2018-10-17T07:12:50.047Z,61.3
2018-10-17T07:13:40.392Z,61.3
2018-10-17T07:14:30.137Z,61.3
2018-10-17T07:15:21.092Z,61.3
2018-10-17T07:16:09.733Z,61.3
2018-10-17T07:17:01.221Z,61.3
2018-10-17T07:17:50.411Z,61.3
2018-10-17T07:18:40.197Z,61.3
2018-10-17T07:19:30.599Z,61.3
2018-10-17T07:20:21.133Z,61.3
2018-10-17T07:21:10.919Z,61.3
2018-10-17T07:22:00.515Z,61.3
2018-10-17T07:22:50.805Z,61.3
2018-10-17T07:23:40.812Z,61.3
2018-10-17T07:24:30.902Z,61.3
2018-10-17T07:25:21.635Z,61.3
2018-10-17T07:26:11.298Z,61.2
2018-10-17T07:27:01.389Z,61.2
2018-10-17T07:27:50.976Z,61.2
2018-10-17T07:28:41.563Z,61.2
2018-10-17T07:29:33.990Z,61.2
2018-10-17T07:30:21.109Z,61.2
2018-10-17T07:31:12.916Z,61.2
2018-10-17T07:32:01.449Z,61.2
2018-10-17T07:32:50.949Z,61.1
2018-10-17T07:33:41.902Z,61.2
2018-10-17T07:34:31.604Z,61.1
2018-10-17T07:35:21.399Z,61.1
2018-10-17T07:36:13.392Z,61.1
2018-10-17T07:37:02.063Z,61.1
2018-10-17T07:37:51.583Z,61.1
2018-10-17T07:38:41.757Z,61.1
2018-10-17T07:39:31.513Z,61.1
2018-10-17T07:40:21.816Z,61.1
2018-10-17T07:41:11.906Z,61.1
2018-10-17T07:42:02.189Z,61.1
2018-10-17T07:42:52.232Z,61.1
2018-10-17T07:43:42.340Z,61.1
2018-10-17T07:44:32.179Z,61.1
2018-10-17T07:45:23.009Z,61.1
2018-10-17T07:46:12.835Z,61.1
2018-10-17T07:47:02.853Z,61.1
2018-10-17T07:47:52.455Z,61
2018-10-17T07:48:42.959Z,61
2018-10-17T07:49:32.726Z,61
2018-10-17T07:50:22.523Z,61
2018-10-17T07:51:13.113Z,61
2018-10-17T07:52:02.959Z,61
2018-10-17T07:52:52.963Z,61
2018-10-17T07:53:44.013Z,60.9
2018-10-17T07:54:33.378Z,61
2018-10-17T07:55:23.418Z,60.9
2018-10-17T07:56:13.491Z,60.9
2018-10-17T07:57:03.563Z,60.9
2018-10-17T07:57:53.643Z,60.9
2018-10-17T07:58:43.408Z,60.9
2018-10-17T07:59:34.171Z,60.9
2018-10-17T08:00:23.857Z,60.9
2018-10-17T08:01:13.020Z,60.9
2018-10-17T08:02:03.627Z,60.9
2018-10-17T08:02:53.500Z,60.9
2018-10-17T08:03:44.035Z,60.9
2018-10-17T08:04:33.827Z,60.9
2018-10-17T08:05:23.901Z,60.9
2018-10-17T08:06:15.374Z,60.9
2018-10-17T08:07:03.848Z,60.9
2018-10-17T08:07:54.085Z,60.9
2018-10-17T08:08:43.852Z,60.9
2018-10-17T08:09:34.482Z,60.9
2018-10-17T08:10:24.332Z,60.9
2018-10-17T08:11:14.860Z,60.8
2018-10-17T08:12:05.714Z,60.8
2018-10-17T08:12:54.738Z,60.8
2018-10-17T08:13:44.499Z,60.8
2018-10-17T08:14:34.568Z,60.8
2018-10-17T08:15:24.052Z,60.8
2018-10-17T08:16:14.701Z,60.8
2018-10-17T08:17:03.867Z,60.8
2018-10-17T08:17:55.481Z,60.8
2018-10-17T08:18:45.174Z,60.8
2018-10-17T08:19:34.937Z,60.8
2018-10-17T08:20:25.346Z,60.8
2018-10-17T08:21:15.828Z,60.8
2018-10-17T08:22:05.443Z,60.8
2018-10-17T08:22:54.631Z,60.8
2018-10-17T08:23:45.331Z,60.8
2018-10-17T08:24:35.291Z,60.8
2018-10-17T08:25:25.189Z,60.9
2018-10-17T08:26:15.719Z,60.9
2018-10-17T08:27:05.491Z,60.9
2018-10-17T08:27:55.846Z,61.1
2018-10-17T08:28:45.887Z,61.1
2018-10-17T08:29:35.674Z,61.2
2018-10-17T08:30:26.026Z,61.3
2018-10-17T08:31:16.098Z,61.3
2018-10-17T08:32:05.844Z,61.3
2018-10-17T08:32:55.914Z,61.4
2018-10-17T08:33:46.271Z,61.4
2018-10-17T08:34:36.036Z,61.5
2018-10-17T08:35:28.186Z,61.6
2018-10-17T08:36:18.265Z,61.6
2018-10-17T08:37:11.514Z,61.7
2018-10-17T08:37:59.020Z,61.8
2018-10-17T08:38:46.637Z,61.8
2018-10-17T08:39:35.861Z,61.9
2018-10-17T08:40:26.469Z,61.9
2018-10-17T08:41:17.445Z,62
2018-10-17T08:42:06.581Z,62.1
2018-10-17T08:42:56.655Z,62.2
2018-10-17T08:43:47.053Z,62.3
2018-10-17T08:44:36.012Z,62.3
2018-10-17T08:45:26.350Z,62.4
2018-10-17T08:46:16.355Z,62.5
2018-10-17T08:47:06.750Z,62.6
2018-10-17T08:47:57.012Z,62.6
2018-10-17T08:48:47.090Z,62.7
2018-10-17T08:49:37.470Z,62.7
2018-10-17T08:50:27.030Z,62.8
2018-10-17T08:51:17.550Z,62.9
2018-10-17T08:52:07.875Z,63
2018-10-17T09:08:53.242Z,64.4
2018-10-17T09:09:42.465Z,64.5
2018-10-17T09:10:33.113Z,64.6
2018-10-17T09:11:23.435Z,64.7
2018-10-17T09:12:14.512Z,64.8
2018-10-17T09:13:03.598Z,64.8
2018-10-17T09:13:53.136Z,64.9
2018-10-17T09:14:43.350Z,64.9
2018-10-17T09:15:39.162Z,65
2018-10-17T09:16:24.206Z,65.1
2018-10-17T09:17:13.572Z,65.1
2018-10-17T09:18:04.429Z,65.3
2018-10-17T09:18:53.132Z,65.3
2018-10-17T09:19:46.802Z,65.3
2018-10-17T09:20:36.954Z,65.4
2018-10-17T09:21:31.036Z,65.6
2018-10-17T09:22:20.575Z,65.6
2018-10-17T09:23:04.273Z,65.7
2018-10-17T09:23:54.200Z,65.8
2018-10-17T09:24:44.124Z,65.8
2018-10-17T09:25:34.728Z,65.9
2018-10-17T09:26:23.744Z,66
2018-10-17T09:27:14.306Z,66.1
2018-10-17T09:28:04.823Z,66.1
2018-10-17T09:28:54.199Z,66.2
2018-10-17T09:29:44.466Z,66.3
2018-10-17T09:30:36.734Z,66.3
2018-10-17T09:31:24.891Z,66.4
2018-10-17T09:32:14.683Z,66.5
2018-10-17T09:33:04.725Z,66.6
2018-10-17T09:33:55.540Z,66.7
2018-10-17T09:34:44.587Z,66.8
2018-10-17T09:35:35.970Z,66.8
2018-10-17T09:36:25.576Z,66.9
2018-10-17T09:37:15.333Z,67
2018-10-17T09:38:05.391Z,67.1
2018-10-17T09:38:55.133Z,67.1
2018-10-17T09:39:44.929Z,67.2
2018-10-17T09:40:35.815Z,67.3
2018-10-17T09:41:25.078Z,67.4
2018-10-17T09:42:17.197Z,67.4
2018-10-17T09:43:05.515Z,67.5
2018-10-17T09:43:56.042Z,67.5
2018-10-17T09:44:45.903Z,67.6
2018-10-17T09:45:35.370Z,67.6
2018-10-17T09:46:25.455Z,67.8
2018-10-17T09:47:16.045Z,67.8
2018-10-17T09:48:06.950Z,67.8
2018-10-17T09:48:55.967Z,67.9
2018-10-17T09:49:45.764Z,68.1
2018-10-17T09:50:35.984Z,68.1
2018-10-17T09:51:26.388Z,68.2
2018-10-17T09:52:17.090Z,68.3
2018-10-17T09:53:06.628Z,68.3
2018-10-17T09:53:56.994Z,68.4
2018-10-17T09:54:46.625Z,68.5
2018-10-17T09:55:36.683Z,68.6
2018-10-17T09:56:26.836Z,68.6
2018-10-17T09:57:16.219Z,68.8
2018-10-17T09:58:07.621Z,68.8
2018-10-17T09:58:56.909Z,68.9
2018-10-17T09:59:45.829Z,69
2018-10-17T10:00:36.752Z,69.1
2018-10-17T10:01:26.540Z,69.1
2018-10-17T10:02:17.971Z,69.3
2018-10-17T10:03:07.235Z,69.3
2018-10-17T10:03:57.834Z,69.4
2018-10-17T10:04:47.358Z,69.4
2018-10-17T10:05:37.727Z,69.5
2018-10-17T10:06:27.032Z,69.6
2018-10-17T10:07:17.259Z,69.6
2018-10-17T10:08:07.598Z,69.7
2018-10-17T10:08:57.367Z,69.8
2018-10-17T10:09:47.980Z,69.8
2018-10-17T10:10:37.212Z,69.9
2018-10-17T10:11:27.583Z,69.9
2018-10-17T10:12:19.170Z,70.1
2018-10-17T10:13:07.949Z,70.2
2018-10-17T10:13:58.791Z,70.2
2018-10-17T10:14:48.375Z,70.3
2018-10-17T10:15:37.428Z,70.3
2018-10-17T10:16:28.369Z,70.3
2018-10-17T10:17:18.378Z,70.4
2018-10-17T10:18:07.496Z,70.5
2018-10-17T10:18:58.419Z,70.6
2018-10-17T10:19:48.466Z,70.7
2018-10-17T10:20:38.546Z,70.8
2018-10-17T10:21:28.357Z,70.8
2018-10-17T10:22:19.399Z,70.8
2018-10-17T10:23:09.458Z,70.9
2018-10-17T10:23:58.850Z,70.9
2018-10-17T10:24:50.266Z,71
2018-10-17T10:25:38.340Z,71.1
2018-10-17T10:26:28.437Z,71.2
2018-10-17T10:27:19.086Z,71.3
2018-10-17T10:28:10.623Z,71.3
2018-10-17T10:28:58.864Z,71.4
2018-10-17T10:29:50.485Z,71.4
2018-10-17T10:30:38.999Z,71.4
2018-10-17T10:31:29.350Z,71.6
2018-10-17T10:32:19.173Z,71.6
2018-10-17T10:33:09.825Z,71.7
2018-10-17T10:33:59.991Z,71.8
2018-10-17T10:34:49.835Z,71.8
2018-10-17T10:35:39.390Z,71.9
2018-10-17T10:36:29.456Z,71.9
2018-10-17T10:37:19.193Z,71.9
2018-10-17T10:38:09.851Z,72
2018-10-17T10:38:59.632Z,72.1
2018-10-17T10:39:49.977Z,72.2
2018-10-17T10:40:41.180Z,72.2
2018-10-17T10:41:30.290Z,72.3
2018-10-17T10:42:20.095Z,72.3
2018-10-17T10:43:10.240Z,72.4
2018-10-17T10:44:00.819Z,72.4
2018-10-17T10:44:50.415Z,72.5
2018-10-17T10:45:41.422Z,72.5
2018-10-17T10:46:30.427Z,72.6
2018-10-17T10:47:20.491Z,72.6
2018-10-17T10:48:11.718Z,72.6
2018-10-17T10:49:00.850Z,72.8
2018-10-17T10:49:50.667Z,72.8
2018-10-17T10:50:40.743Z,72.8
2018-10-17T10:51:31.432Z,72.9
2018-10-17T10:52:20.597Z,72.9
2018-10-17T10:53:11.620Z,73
2018-10-17T10:54:01.415Z,73
2018-10-17T10:54:50.816Z,73.1
2018-10-17T10:55:40.806Z,73.1
2018-10-17T10:56:31.687Z,73.2
2018-10-17T10:57:21.598Z,73.2
2018-10-17T10:58:12.935Z,73.3
2018-10-17T10:59:02.690Z,73.3
2018-10-17T10:59:51.663Z,73.3
2018-10-17T11:00:41.455Z,73.4
2018-10-17T11:01:31.264Z,73.4
2018-10-17T11:02:21.986Z,73.5
2018-10-17T11:03:12.439Z,73.6
2018-10-17T11:04:01.144Z,73.6
2018-10-17T11:04:52.721Z,73.7
2018-10-17T11:05:43.922Z,73.7
2018-10-17T11:06:31.891Z,73.8
2018-10-17T11:07:21.921Z,73.8
2018-10-17T11:08:12.877Z,73.8
2018-10-17T11:09:02.073Z,73.9
2018-10-17T11:09:52.148Z,73.9
2018-10-17T11:10:41.650Z,73.9
2018-10-17T11:11:32.243Z,74
2018-10-17T11:12:22.337Z,74
2018-10-17T11:13:12.393Z,74.1
2018-10-17T11:14:04.258Z,74.1
2018-10-17T11:14:55.629Z,74.2
2018-10-17T11:15:42.632Z,74.2
2018-10-17T11:16:32.342Z,74.3
2018-10-17T11:17:22.093Z,74.3
2018-10-17T11:18:12.763Z,74.4
2018-10-17T11:19:02.809Z,74.4
2018-10-17T11:19:52.875Z,74.4
2018-10-17T11:20:42.665Z,74.4
2018-10-17T11:21:32.175Z,74.5
2018-10-17T11:22:23.355Z,74.5
2018-10-17T11:23:14.141Z,74.6
2018-10-17T11:24:02.885Z,74.6
2018-10-17T11:24:52.674Z,74.6
2018-10-17T11:25:43.017Z,74.7
2018-10-17T11:26:33.379Z,74.8
2018-10-17T11:27:23.560Z,74.8
2018-10-17T11:28:13.197Z,74.8
2018-10-17T11:29:04.280Z,74.8
2018-10-17T11:29:53.609Z,74.8
2018-10-17T11:30:43.388Z,74.9
2018-10-17T11:31:34.074Z,74.9
2018-10-17T11:32:23.849Z,74.9
2018-10-17T11:33:15.438Z,74.9
2018-10-17T11:34:03.970Z,75
2018-10-17T11:34:54.196Z,75
2018-10-17T11:35:44.061Z,75
2018-10-17T11:36:34.161Z,75.1
2018-10-17T11:37:25.277Z,75.1
2018-10-17T11:38:13.976Z,75.1
2018-10-17T11:39:05.105Z,75.1
2018-10-17T11:39:54.406Z,75.1
2018-10-17T11:40:45.902Z,75.2
2018-10-17T11:41:36.022Z,75.2
2018-10-17T11:42:24.249Z,75.3
2018-10-17T11:43:14.876Z,75.3
2018-10-17T11:44:04.723Z,75.3
2018-10-17T11:44:54.728Z,75.3
2018-10-17T11:45:44.798Z,75.4
2018-10-17T11:46:34.911Z,75.4
2018-10-17T11:47:24.939Z,75.4
2018-10-17T11:48:14.956Z,75.4
2018-10-17T11:49:04.780Z,75.4
2018-10-17T11:49:54.826Z,75.4
2018-10-17T11:50:45.431Z,75.5
2018-10-17T11:51:35.461Z,75.6
2018-10-17T11:52:25.279Z,75.6
2018-10-17T11:53:15.899Z,75.6
2018-10-17T11:54:05.425Z,75.6
2018-10-17T11:54:55.168Z,75.6
2018-10-17T11:55:49.285Z,75.7
2018-10-17T11:56:36.607Z,75.7
2018-10-17T11:57:25.203Z,75.8
2018-10-17T11:58:15.241Z,75.8
2018-10-17T11:59:05.914Z,75.8
2018-10-17T11:59:55.684Z,75.8